sensor_id;sensor_type;location;lat;lon;timestamp;pressure;altitude;pressure_sealevel;temperature
75822;BMP180;64454;51.984;9.838;2023-07-22T00:00:30;99926.00;;;16.90
75822;BMP180;64454;51.984;9.838;2023-07-22T00:02:58;99922.00;;;17.00
75822;BMP180;64454;51.984;9.838;2023-07-22T00:05:25;99922.00;;;17.00
75822;BMP180;64454;51.984;9.838;2023-07-22T00:07:52;99921.00;;;17.10
75822;BMP180;64454;51.984;9.838;2023-07-22T00:10:19;99916.00;;;17.20
75822;BMP180;64454;51.984;9.838;2023-07-22T00:12:46;99912.00;;;16.90
75822;BMP180;64454;51.984;9.838;2023-07-22T00:15:13;99916.00;;;16.80
75822;BMP180;64454;51.984;9.838;2023-07-22T00:17:40;99921.00;;;16.90
75822;BMP180;64454;51.984;9.838;2023-07-22T00:20:10;99921.00;;;16.80
75822;BMP180;64454;51.984;9.838;2023-07-22T00:22:37;99926.00;;;16.80
75822;BMP180;64454;51.984;9.838;2023-07-22T00:25:07;99928.00;;;16.80
75822;BMP180;64454;51.984;9.838;2023-07-22T00:27:36;99927.00;;;16.60
75822;BMP180;64454;51.984;9.838;2023-07-22T00:30:05;99937.00;;;16.60
75822;BMP180;64454;51.984;9.838;2023-07-22T00:32:32;99931.00;;;16.50
75822;BMP180;64454;51.984;9.838;2023-07-22T00:34:59;99927.00;;;16.30
75822;BMP180;64454;51.984;9.838;2023-07-22T00:37:27;99924.00;;;16.10
75822;BMP180;64454;51.984;9.838;2023-07-22T00:39:54;99936.00;;;16.30
75822;BMP180;64454;51.984;9.838;2023-07-22T00:42:21;99930.00;;;15.90
75822;BMP180;64454;51.984;9.838;2023-07-22T00:44:48;99935.00;;;16.00
75822;BMP180;64454;51.984;9.838;2023-07-22T00:47:16;99931.00;;;15.90
75822;BMP180;64454;51.984;9.838;2023-07-22T00:49:47;99934.00;;;16.10
75822;BMP180;64454;51.984;9.838;2023-07-22T00:52:16;99933.00;;;16.40
75822;BMP180;64454;51.984;9.838;2023-07-22T00:54:44;99933.00;;;16.40
75822;BMP180;64454;51.984;9.838;2023-07-22T00:57:11;99924.00;;;16.00
75822;BMP180;64454;51.984;9.838;2023-07-22T00:59:39;99927.00;;;16.10
75822;BMP180;64454;51.984;9.838;2023-07-22T01:02:07;99929.00;;;16.00
75822;BMP180;64454;51.984;9.838;2023-07-22T01:04:35;99924.00;;;16.20
75822;BMP180;64454;51.984;9.838;2023-07-22T01:07:04;99922.00;;;16.20
75822;BMP180;64454;51.984;9.838;2023-07-22T01:09:37;99928.00;;;16.50
75822;BMP180;64454;51.984;9.838;2023-07-22T01:12:07;99917.00;;;16.60
75822;BMP180;64454;51.984;9.838;2023-07-22T01:14:34;99921.00;;;16.40
75822;BMP180;64454;51.984;9.838;2023-07-22T01:17:03;99926.00;;;16.60
75822;BMP180;64454;51.984;9.838;2023-07-22T01:19:31;99924.00;;;16.30
75822;BMP180;64454;51.984;9.838;2023-07-22T01:22:01;99924.00;;;16.50
75822;BMP180;64454;51.984;9.838;2023-07-22T01:24:29;99926.00;;;16.40
75822;BMP180;64454;51.984;9.838;2023-07-22T01:26:56;99926.00;;;15.90
75822;BMP180;64454;51.984;9.838;2023-07-22T01:29:24;99926.00;;;15.90
75822;BMP180;64454;51.984;9.838;2023-07-22T01:31:53;99927.00;;;16.10
75822;BMP180;64454;51.984;9.838;2023-07-22T01:34:22;99930.00;;;15.80
75822;BMP180;64454;51.984;9.838;2023-07-22T01:36:50;99935.00;;;15.90
75822;BMP180;64454;51.984;9.838;2023-07-22T01:39:20;99936.00;;;15.90
75822;BMP180;64454;51.984;9.838;2023-07-22T01:41:49;99932.00;;;16.30
75822;BMP180;64454;51.984;9.838;2023-07-22T01:44:18;99923.00;;;15.90
75822;BMP180;64454;51.984;9.838;2023-07-22T01:46:46;99921.00;;;15.70
75822;BMP180;64454;51.984;9.838;2023-07-22T01:49:13;99921.00;;;15.60
75822;BMP180;64454;51.984;9.838;2023-07-22T01:51:42;99916.00;;;15.60
75822;BMP180;64454;51.984;9.838;2023-07-22T01:54:09;99922.00;;;15.60
75822;BMP180;64454;51.984;9.838;2023-07-22T01:56:37;99923.00;;;15.60
75822;BMP180;64454;51.984;9.838;2023-07-22T01:59:05;99931.00;;;15.30
75822;BMP180;64454;51.984;9.838;2023-07-22T02:01:33;99939.00;;;15.20
75822;BMP180;64454;51.984;9.838;2023-07-22T02:04:00;99937.00;;;15.10
75822;BMP180;64454;51.984;9.838;2023-07-22T02:06:27;99943.00;;;15.10
75822;BMP180;64454;51.984;9.838;2023-07-22T02:08:54;99931.00;;;14.90
75822;BMP180;64454;51.984;9.838;2023-07-22T02:11:21;99937.00;;;15.00
75822;BMP180;64454;51.984;9.838;2023-07-22T02:13:48;99943.00;;;15.00
75822;BMP180;64454;51.984;9.838;2023-07-22T02:16:16;99948.00;;;14.80
75822;BMP180;64454;51.984;9.838;2023-07-22T02:18:44;99946.00;;;14.50
75822;BMP180;64454;51.984;9.838;2023-07-22T02:21:10;99947.00;;;14.50
75822;BMP180;64454;51.984;9.838;2023-07-22T02:23:37;99955.00;;;14.30
75822;BMP180;64454;51.984;9.838;2023-07-22T02:26:04;99953.00;;;14.50
75822;BMP180;64454;51.984;9.838;2023-07-22T02:28:32;99943.00;;;14.50
75822;BMP180;64454;51.984;9.838;2023-07-22T02:31:02;99945.00;;;15.00
75822;BMP180;64454;51.984;9.838;2023-07-22T02:33:33;99947.00;;;15.30
75822;BMP180;64454;51.984;9.838;2023-07-22T02:36:00;99946.00;;;15.40
75822;BMP180;64454;51.984;9.838;2023-07-22T02:38:27;99953.00;;;15.40
75822;BMP180;64454;51.984;9.838;2023-07-22T02:40:54;99949.00;;;15.20
75822;BMP180;64454;51.984;9.838;2023-07-22T02:43:21;99945.00;;;14.90
75822;BMP180;64454;51.984;9.838;2023-07-22T02:45:48;99949.00;;;14.60
75822;BMP180;64454;51.984;9.838;2023-07-22T02:48:15;99951.00;;;14.70
75822;BMP180;64454;51.984;9.838;2023-07-22T02:50:43;99957.00;;;14.90
75822;BMP180;64454;51.984;9.838;2023-07-22T02:53:11;99948.00;;;14.90
75822;BMP180;64454;51.984;9.838;2023-07-22T02:55:38;99953.00;;;14.90
75822;BMP180;64454;51.984;9.838;2023-07-22T02:58:05;99951.00;;;15.10
75822;BMP180;64454;51.984;9.838;2023-07-22T03:00:32;99957.00;;;15.00
75822;BMP180;64454;51.984;9.838;2023-07-22T03:02:59;99963.00;;;15.00
75822;BMP180;64454;51.984;9.838;2023-07-22T03:05:28;99960.00;;;15.10
75822;BMP180;64454;51.984;9.838;2023-07-22T03:07:57;99961.00;;;15.30
75822;BMP180;64454;51.984;9.838;2023-07-22T03:10:24;99957.00;;;15.20
75822;BMP180;64454;51.984;9.838;2023-07-22T03:12:56;99963.00;;;15.00
75822;BMP180;64454;51.984;9.838;2023-07-22T03:15:23;99956.00;;;15.00
75822;BMP180;64454;51.984;9.838;2023-07-22T03:17:51;99955.00;;;14.90
75822;BMP180;64454;51.984;9.838;2023-07-22T03:20:19;99951.00;;;14.70
75822;BMP180;64454;51.984;9.838;2023-07-22T03:22:47;99954.00;;;14.70
75822;BMP180;64454;51.984;9.838;2023-07-22T03:25:16;99958.00;;;14.80
75822;BMP180;64454;51.984;9.838;2023-07-22T03:27:45;99957.00;;;14.60
75822;BMP180;64454;51.984;9.838;2023-07-22T03:30:15;99955.00;;;14.50
75822;BMP180;64454;51.984;9.838;2023-07-22T03:32:44;99962.00;;;14.50
75822;BMP180;64454;51.984;9.838;2023-07-22T03:35:13;99976.00;;;14.70
75822;BMP180;64454;51.984;9.838;2023-07-22T03:37:40;99970.00;;;14.70
75822;BMP180;64454;51.984;9.838;2023-07-22T03:40:09;99969.00;;;14.70
75822;BMP180;64454;51.984;9.838;2023-07-22T03:42:41;99974.00;;;15.00
75822;BMP180;64454;51.984;9.838;2023-07-22T03:45:09;99983.00;;;15.00
75822;BMP180;64454;51.984;9.838;2023-07-22T03:47:36;99977.00;;;14.90
75822;BMP180;64454;51.984;9.838;2023-07-22T03:50:04;99972.00;;;15.00
75822;BMP180;64454;51.984;9.838;2023-07-22T03:52:31;99973.00;;;14.70
75822;BMP180;64454;51.984;9.838;2023-07-22T03:54:58;99976.00;;;14.80
75822;BMP180;64454;51.984;9.838;2023-07-22T03:57:26;99977.00;;;14.50
75822;BMP180;64454;51.984;9.838;2023-07-22T03:59:55;99976.00;;;14.30
75822;BMP180;64454;51.984;9.838;2023-07-22T04:02:22;99981.00;;;14.60
75822;BMP180;64454;51.984;9.838;2023-07-22T04:04:51;99979.00;;;14.30
75822;BMP180;64454;51.984;9.838;2023-07-22T04:07:18;99978.00;;;14.40
75822;BMP180;64454;51.984;9.838;2023-07-22T04:09:45;99986.00;;;15.00
75822;BMP180;64454;51.984;9.838;2023-07-22T04:12:12;99983.00;;;14.40
75822;BMP180;64454;51.984;9.838;2023-07-22T04:14:39;99981.00;;;14.00
75822;BMP180;64454;51.984;9.838;2023-07-22T04:17:07;99986.00;;;14.10
75822;BMP180;64454;51.984;9.838;2023-07-22T04:19:35;99973.00;;;14.20
75822;BMP180;64454;51.984;9.838;2023-07-22T04:22:02;99982.00;;;14.20
75822;BMP180;64454;51.984;9.838;2023-07-22T04:24:30;99979.00;;;14.50
75822;BMP180;64454;51.984;9.838;2023-07-22T04:26:57;99982.00;;;14.30
75822;BMP180;64454;51.984;9.838;2023-07-22T04:29:24;99976.00;;;14.20
75822;BMP180;64454;51.984;9.838;2023-07-22T04:31:51;99983.00;;;14.20
75822;BMP180;64454;51.984;9.838;2023-07-22T04:34:20;99989.00;;;14.30
75822;BMP180;64454;51.984;9.838;2023-07-22T04:36:47;99985.00;;;14.20
75822;BMP180;64454;51.984;9.838;2023-07-22T04:39:16;99989.00;;;14.20
75822;BMP180;64454;51.984;9.838;2023-07-22T04:41:44;99991.00;;;14.40
75822;BMP180;64454;51.984;9.838;2023-07-22T04:44:11;99990.00;;;14.60
75822;BMP180;64454;51.984;9.838;2023-07-22T04:46:38;99985.00;;;14.50
75822;BMP180;64454;51.984;9.838;2023-07-22T04:49:06;99990.00;;;14.50
75822;BMP180;64454;51.984;9.838;2023-07-22T04:51:35;99994.00;;;14.50
75822;BMP180;64454;51.984;9.838;2023-07-22T04:54:02;99995.00;;;14.50
75822;BMP180;64454;51.984;9.838;2023-07-22T04:56:30;99999.00;;;14.30
75822;BMP180;64454;51.984;9.838;2023-07-22T04:58:57;100006.00;;;14.40
75822;BMP180;64454;51.984;9.838;2023-07-22T05:01:24;100000.00;;;14.40
75822;BMP180;64454;51.984;9.838;2023-07-22T05:03:51;100002.00;;;14.50
75822;BMP180;64454;51.984;9.838;2023-07-22T05:06:40;100004.00;;;14.70
75822;BMP180;64454;51.984;9.838;2023-07-22T05:09:27;100009.00;;;14.60
75822;BMP180;64454;51.984;9.838;2023-07-22T05:12:14;100005.00;;;14.70
75822;BMP180;64454;51.984;9.838;2023-07-22T05:15:02;100006.00;;;14.70
75822;BMP180;64454;51.984;9.838;2023-07-22T05:17:29;100009.00;;;14.70
75822;BMP180;64454;51.984;9.838;2023-07-22T05:19:57;100007.00;;;14.80
75822;BMP180;64454;51.984;9.838;2023-07-22T05:22:25;100008.00;;;15.00
75822;BMP180;64454;51.984;9.838;2023-07-22T05:24:52;100004.00;;;15.00
75822;BMP180;64454;51.984;9.838;2023-07-22T05:27:19;100002.00;;;15.20
75822;BMP180;64454;51.984;9.838;2023-07-22T05:29:46;100013.00;;;15.10
75822;BMP180;64454;51.984;9.838;2023-07-22T05:32:13;100011.00;;;14.70
75822;BMP180;64454;51.984;9.838;2023-07-22T05:34:40;100017.00;;;14.90
75822;BMP180;64454;51.984;9.838;2023-07-22T05:37:07;100019.00;;;15.00
75822;BMP180;64454;51.984;9.838;2023-07-22T05:39:36;100015.00;;;15.00
75822;BMP180;64454;51.984;9.838;2023-07-22T05:42:03;100020.00;;;15.00
75822;BMP180;64454;51.984;9.838;2023-07-22T05:44:30;100018.00;;;15.00
75822;BMP180;64454;51.984;9.838;2023-07-22T05:46:57;100021.00;;;15.00
75822;BMP180;64454;51.984;9.838;2023-07-22T05:49:24;100010.00;;;14.80
75822;BMP180;64454;51.984;9.838;2023-07-22T05:51:52;100014.00;;;14.80
75822;BMP180;64454;51.984;9.838;2023-07-22T05:54:21;100025.00;;;15.30
75822;BMP180;64454;51.984;9.838;2023-07-22T05:56:49;100027.00;;;15.20
75822;BMP180;64454;51.984;9.838;2023-07-22T05:59:19;100031.00;;;15.50
75822;BMP180;64454;51.984;9.838;2023-07-22T06:01:46;100032.00;;;15.40
75822;BMP180;64454;51.984;9.838;2023-07-22T06:04:15;100036.00;;;15.40
75822;BMP180;64454;51.984;9.838;2023-07-22T06:06:43;100029.00;;;15.20
75822;BMP180;64454;51.984;9.838;2023-07-22T06:09:10;100022.00;;;15.20
75822;BMP180;64454;51.984;9.838;2023-07-22T06:11:36;100027.00;;;15.20
75822;BMP180;64454;51.984;9.838;2023-07-22T06:14:05;100030.00;;;15.60
75822;BMP180;64454;51.984;9.838;2023-07-22T06:16:32;100030.00;;;15.20
75822;BMP180;64454;51.984;9.838;2023-07-22T06:18:59;100025.00;;;15.20
75822;BMP180;64454;51.984;9.838;2023-07-22T06:21:26;100035.00;;;15.30
75822;BMP180;64454;51.984;9.838;2023-07-22T06:23:53;100030.00;;;15.40
75822;BMP180;64454;51.984;9.838;2023-07-22T06:26:20;100033.00;;;15.70
75822;BMP180;64454;51.984;9.838;2023-07-22T06:28:47;100024.00;;;16.00
75822;BMP180;64454;51.984;9.838;2023-07-22T06:31:15;100032.00;;;16.00
75822;BMP180;64454;51.984;9.838;2023-07-22T06:33:43;100031.00;;;16.00
75822;BMP180;64454;51.984;9.838;2023-07-22T06:36:11;100025.00;;;16.20
75822;BMP180;64454;51.984;9.838;2023-07-22T06:38:38;100041.00;;;16.10
75822;BMP180;64454;51.984;9.838;2023-07-22T06:41:05;100041.00;;;15.60
75822;BMP180;64454;51.984;9.838;2023-07-22T06:43:32;100043.00;;;16.00
75822;BMP180;64454;51.984;9.838;2023-07-22T06:45:59;100044.00;;;15.90
75822;BMP180;64454;51.984;9.838;2023-07-22T06:48:27;100044.00;;;15.40
75822;BMP180;64454;51.984;9.838;2023-07-22T06:50:54;100056.00;;;15.40
75822;BMP180;64454;51.984;9.838;2023-07-22T06:53:21;100054.00;;;15.70
75822;BMP180;64454;51.984;9.838;2023-07-22T06:55:49;100054.00;;;15.60
75822;BMP180;64454;51.984;9.838;2023-07-22T06:58:16;100049.00;;;15.80
75822;BMP180;64454;51.984;9.838;2023-07-22T07:00:43;100043.00;;;15.60
75822;BMP180;64454;51.984;9.838;2023-07-22T07:03:11;100038.00;;;15.90
75822;BMP180;64454;51.984;9.838;2023-07-22T07:05:39;100044.00;;;16.30
75822;BMP180;64454;51.984;9.838;2023-07-22T07:08:07;100038.00;;;16.40
75822;BMP180;64454;51.984;9.838;2023-07-22T07:10:38;100029.00;;;17.00
75822;BMP180;64454;51.984;9.838;2023-07-22T07:13:05;100020.00;;;17.20
75822;BMP180;64454;51.984;9.838;2023-07-22T07:15:32;100018.00;;;17.20
75822;BMP180;64454;51.984;9.838;2023-07-22T07:17:59;100028.00;;;17.70
75822;BMP180;64454;51.984;9.838;2023-07-22T07:20:26;100016.00;;;17.40
75822;BMP180;64454;51.984;9.838;2023-07-22T07:22:54;100019.00;;;16.90
75822;BMP180;64454;51.984;9.838;2023-07-22T07:25:21;100034.00;;;17.20
75822;BMP180;64454;51.984;9.838;2023-07-22T07:27:48;100033.00;;;17.60
75822;BMP180;64454;51.984;9.838;2023-07-22T07:30:15;100028.00;;;18.00
75822;BMP180;64454;51.984;9.838;2023-07-22T07:32:42;100024.00;;;18.00
75822;BMP180;64454;51.984;9.838;2023-07-22T07:35:09;100033.00;;;17.90
75822;BMP180;64454;51.984;9.838;2023-07-22T07:37:36;100036.00;;;17.40
75822;BMP180;64454;51.984;9.838;2023-07-22T07:40:07;100045.00;;;17.00
75822;BMP180;64454;51.984;9.838;2023-07-22T07:42:34;100039.00;;;17.00
75822;BMP180;64454;51.984;9.838;2023-07-22T07:45:01;100035.00;;;17.20
75822;BMP180;64454;51.984;9.838;2023-07-22T07:47:28;100034.00;;;17.80
75822;BMP180;64454;51.984;9.838;2023-07-22T07:49:55;100037.00;;;18.10
75822;BMP180;64454;51.984;9.838;2023-07-22T07:52:22;100044.00;;;17.90
75822;BMP180;64454;51.984;9.838;2023-07-22T07:54:49;100045.00;;;17.70
75822;BMP180;64454;51.984;9.838;2023-07-22T07:57:17;100037.00;;;17.50
75822;BMP180;64454;51.984;9.838;2023-07-22T07:59:44;100044.00;;;17.90
75822;BMP180;64454;51.984;9.838;2023-07-22T08:02:11;100044.00;;;17.80
75822;BMP180;64454;51.984;9.838;2023-07-22T08:04:38;100055.00;;;17.60
75822;BMP180;64454;51.984;9.838;2023-07-22T08:07:06;100063.00;;;17.30
75822;BMP180;64454;51.984;9.838;2023-07-22T08:09:33;100073.00;;;17.50
75822;BMP180;64454;51.984;9.838;2023-07-22T08:12:01;100074.00;;;17.80
75822;BMP180;64454;51.984;9.838;2023-07-22T08:14:30;100079.00;;;18.40
75822;BMP180;64454;51.984;9.838;2023-07-22T08:16:57;100070.00;;;17.70
75822;BMP180;64454;51.984;9.838;2023-07-22T08:19:23;100061.00;;;17.90
75822;BMP180;64454;51.984;9.838;2023-07-22T08:21:50;100062.00;;;18.50
75822;BMP180;64454;51.984;9.838;2023-07-22T08:24:20;100060.00;;;17.90
75822;BMP180;64454;51.984;9.838;2023-07-22T08:26:47;100074.00;;;17.60
75822;BMP180;64454;51.984;9.838;2023-07-22T08:29:16;100067.00;;;17.20
75822;BMP180;64454;51.984;9.838;2023-07-22T08:31:45;100065.00;;;17.50
75822;BMP180;64454;51.984;9.838;2023-07-22T08:34:13;100075.00;;;17.60
75822;BMP180;64454;51.984;9.838;2023-07-22T08:36:41;100063.00;;;18.10
75822;BMP180;64454;51.984;9.838;2023-07-22T08:39:09;100066.00;;;18.30
75822;BMP180;64454;51.984;9.838;2023-07-22T08:41:36;100073.00;;;18.50
75822;BMP180;64454;51.984;9.838;2023-07-22T08:44:05;100083.00;;;18.00
75822;BMP180;64454;51.984;9.838;2023-07-22T08:46:36;100083.00;;;18.00
75822;BMP180;64454;51.984;9.838;2023-07-22T08:49:07;100076.00;;;18.10
75822;BMP180;64454;51.984;9.838;2023-07-22T08:51:35;100070.00;;;17.90
75822;BMP180;64454;51.984;9.838;2023-07-22T08:54:05;100086.00;;;18.30
75822;BMP180;64454;51.984;9.838;2023-07-22T08:56:32;100086.00;;;18.00
75822;BMP180;64454;51.984;9.838;2023-07-22T08:59:00;100080.00;;;18.00
75822;BMP180;64454;51.984;9.838;2023-07-22T09:01:28;100078.00;;;18.70
75822;BMP180;64454;51.984;9.838;2023-07-22T09:03:55;100076.00;;;18.70
75822;BMP180;64454;51.984;9.838;2023-07-22T09:06:25;100074.00;;;18.60
75822;BMP180;64454;51.984;9.838;2023-07-22T09:08:52;100084.00;;;18.50
75822;BMP180;64454;51.984;9.838;2023-07-22T09:11:20;100077.00;;;18.60
75822;BMP180;64454;51.984;9.838;2023-07-22T09:13:48;100079.00;;;19.00
75822;BMP180;64454;51.984;9.838;2023-07-22T09:16:17;100055.00;;;20.00
75822;BMP180;64454;51.984;9.838;2023-07-22T09:18:45;100055.00;;;20.10
75822;BMP180;64454;51.984;9.838;2023-07-22T09:21:12;100047.00;;;20.70
75822;BMP180;64454;51.984;9.838;2023-07-22T09:23:40;100057.00;;;21.20
75822;BMP180;64454;51.984;9.838;2023-07-22T09:26:11;100054.00;;;21.20
75822;BMP180;64454;51.984;9.838;2023-07-22T09:28:50;100054.00;;;19.60
75822;BMP180;64454;51.984;9.838;2023-07-22T09:31:17;100053.00;;;19.60
75822;BMP180;64454;51.984;9.838;2023-07-22T09:33:44;100064.00;;;20.80
75822;BMP180;64454;51.984;9.838;2023-07-22T09:36:11;100073.00;;;21.20
75822;BMP180;64454;51.984;9.838;2023-07-22T09:38:40;100060.00;;;20.90
75822;BMP180;64454;51.984;9.838;2023-07-22T09:41:07;100061.00;;;21.20
75822;BMP180;64454;51.984;9.838;2023-07-22T09:43:36;100062.00;;;21.50
75822;BMP180;64454;51.984;9.838;2023-07-22T09:46:09;100058.00;;;21.20
75822;BMP180;64454;51.984;9.838;2023-07-22T09:48:41;100046.00;;;21.40
75822;BMP180;64454;51.984;9.838;2023-07-22T09:51:13;100050.00;;;22.00
75822;BMP180;64454;51.984;9.838;2023-07-22T09:53:59;100053.00;;;22.00
75822;BMP180;64454;51.984;9.838;2023-07-22T09:56:26;100057.00;;;20.80
75822;BMP180;64454;51.984;9.838;2023-07-22T09:58:54;100063.00;;;20.70
75822;BMP180;64454;51.984;9.838;2023-07-22T10:01:24;100052.00;;;21.00
75822;BMP180;64454;51.984;9.838;2023-07-22T10:03:54;100055.00;;;20.80
75822;BMP180;64454;51.984;9.838;2023-07-22T10:06:26;100040.00;;;21.50
75822;BMP180;64454;51.984;9.838;2023-07-22T10:08:56;100021.00;;;22.50
75822;BMP180;64454;51.984;9.838;2023-07-22T10:11:26;100023.00;;;22.50
75822;BMP180;64454;51.984;9.838;2023-07-22T10:13:55;100032.00;;;22.70
75822;BMP180;64454;51.984;9.838;2023-07-22T10:16:23;100023.00;;;21.80
75822;BMP180;64454;51.984;9.838;2023-07-22T10:18:51;100046.00;;;20.90
75822;BMP180;64454;51.984;9.838;2023-07-22T10:21:18;100042.00;;;20.80
75822;BMP180;64454;51.984;9.838;2023-07-22T10:23:48;100031.00;;;21.80
75822;BMP180;64454;51.984;9.838;2023-07-22T10:26:18;100036.00;;;22.10
75822;BMP180;64454;51.984;9.838;2023-07-22T10:28:47;100034.00;;;21.50
75822;BMP180;64454;51.984;9.838;2023-07-22T10:31:14;100037.00;;;21.80
75822;BMP180;64454;51.984;9.838;2023-07-22T10:33:45;100053.00;;;21.80
75822;BMP180;64454;51.984;9.838;2023-07-22T10:36:15;100047.00;;;21.00
75822;BMP180;64454;51.984;9.838;2023-07-22T10:38:43;100034.00;;;20.20
75822;BMP180;64454;51.984;9.838;2023-07-22T10:41:16;100024.00;;;20.70
75822;BMP180;64454;51.984;9.838;2023-07-22T10:43:55;100029.00;;;21.20
75822;BMP180;64454;51.984;9.838;2023-07-22T10:46:32;100031.00;;;21.50
75822;BMP180;64454;51.984;9.838;2023-07-22T10:49:09;100036.00;;;21.50
75822;BMP180;64454;51.984;9.838;2023-07-22T10:51:37;100023.00;;;22.60
75822;BMP180;64454;51.984;9.838;2023-07-22T10:54:11;100018.00;;;22.70
75822;BMP180;64454;51.984;9.838;2023-07-22T10:56:43;100020.00;;;22.50
75822;BMP180;64454;51.984;9.838;2023-07-22T10:59:11;100015.00;;;23.00
75822;BMP180;64454;51.984;9.838;2023-07-22T11:01:39;99998.00;;;23.90
75822;BMP180;64454;51.984;9.838;2023-07-22T11:04:12;99988.00;;;25.10
75822;BMP180;64454;51.984;9.838;2023-07-22T11:06:53;99992.00;;;25.70
75822;BMP180;64454;51.984;9.838;2023-07-22T11:09:42;100000.00;;;25.50
75822;BMP180;64454;51.984;9.838;2023-07-22T11:12:17;99988.00;;;24.20
75822;BMP180;64454;51.984;9.838;2023-07-22T11:14:48;99996.00;;;24.00
75822;BMP180;64454;51.984;9.838;2023-07-22T11:17:17;99982.00;;;24.20
75822;BMP180;64454;51.984;9.838;2023-07-22T11:19:45;99979.00;;;24.20
75822;BMP180;64454;51.984;9.838;2023-07-22T11:22:13;99988.00;;;23.70
75822;BMP180;64454;51.984;9.838;2023-07-22T11:24:40;99971.00;;;23.10
75822;BMP180;64454;51.984;9.838;2023-07-22T11:27:08;99973.00;;;24.60
75822;BMP180;64454;51.984;9.838;2023-07-22T11:29:36;99979.00;;;24.60
75822;BMP180;64454;51.984;9.838;2023-07-22T11:32:05;99977.00;;;23.50
75822;BMP180;64454;51.984;9.838;2023-07-22T11:34:32;99961.00;;;24.90
75822;BMP180;64454;51.984;9.838;2023-07-22T11:36:59;99960.00;;;25.60
75822;BMP180;64454;51.984;9.838;2023-07-22T11:39:27;99952.00;;;26.30
75822;BMP180;64454;51.984;9.838;2023-07-22T11:41:59;99963.00;;;26.40
75822;BMP180;64454;51.984;9.838;2023-07-22T11:44:28;99969.00;;;25.70
75822;BMP180;64454;51.984;9.838;2023-07-22T11:46:59;99959.00;;;26.00
75822;BMP180;64454;51.984;9.838;2023-07-22T11:49:29;99947.00;;;25.30
75822;BMP180;64454;51.984;9.838;2023-07-22T11:51:58;99954.00;;;25.50
75822;BMP180;64454;51.984;9.838;2023-07-22T11:54:27;99952.00;;;25.70
75822;BMP180;64454;51.984;9.838;2023-07-22T11:56:54;99947.00;;;26.50
75822;BMP180;64454;51.984;9.838;2023-07-22T11:59:35;99948.00;;;26.60
75822;BMP180;64454;51.984;9.838;2023-07-22T12:02:05;99950.00;;;26.70
75822;BMP180;64454;51.984;9.838;2023-07-22T12:04:33;99956.00;;;25.00
75822;BMP180;64454;51.984;9.838;2023-07-22T12:07:01;99951.00;;;24.10
75822;BMP180;64454;51.984;9.838;2023-07-22T12:09:30;99951.00;;;24.30
75822;BMP180;64454;51.984;9.838;2023-07-22T12:11:59;99952.00;;;23.60
75822;BMP180;64454;51.984;9.838;2023-07-22T12:14:34;99942.00;;;23.50
75822;BMP180;64454;51.984;9.838;2023-07-22T12:17:02;99958.00;;;23.50
75822;BMP180;64454;51.984;9.838;2023-07-22T12:19:30;99957.00;;;23.80
75822;BMP180;64454;51.984;9.838;2023-07-22T12:21:57;99951.00;;;23.40
75822;BMP180;64454;51.984;9.838;2023-07-22T12:24:24;99949.00;;;24.10
75822;BMP180;64454;51.984;9.838;2023-07-22T12:26:51;99952.00;;;24.20
75822;BMP180;64454;51.984;9.838;2023-07-22T12:29:20;99958.00;;;23.10
75822;BMP180;64454;51.984;9.838;2023-07-22T12:31:47;99954.00;;;23.50
75822;BMP180;64454;51.984;9.838;2023-07-22T12:34:16;99948.00;;;23.80
75822;BMP180;64454;51.984;9.838;2023-07-22T12:36:46;99947.00;;;23.80
75822;BMP180;64454;51.984;9.838;2023-07-22T12:39:13;99947.00;;;23.70
75822;BMP180;64454;51.984;9.838;2023-07-22T12:41:41;99952.00;;;23.70
75822;BMP180;64454;51.984;9.838;2023-07-22T12:44:09;99942.00;;;22.60
75822;BMP180;64454;51.984;9.838;2023-07-22T12:46:36;99934.00;;;22.90
75822;BMP180;64454;51.984;9.838;2023-07-22T12:49:03;99938.00;;;22.70
75822;BMP180;64454;51.984;9.838;2023-07-22T12:51:31;99945.00;;;21.60
75822;BMP180;64454;51.984;9.838;2023-07-22T12:53:59;99939.00;;;21.60
75822;BMP180;64454;51.984;9.838;2023-07-22T12:56:26;99941.00;;;21.50
75822;BMP180;64454;51.984;9.838;2023-07-22T12:58:53;99942.00;;;21.40
75822;BMP180;64454;51.984;9.838;2023-07-22T13:01:20;99942.00;;;21.70
75822;BMP180;64454;51.984;9.838;2023-07-22T13:03:47;99948.00;;;21.40
75822;BMP180;64454;51.984;9.838;2023-07-22T13:06:14;99934.00;;;21.40
75822;BMP180;64454;51.984;9.838;2023-07-22T13:08:41;99936.00;;;21.50
75822;BMP180;64454;51.984;9.838;2023-07-22T13:11:09;99934.00;;;21.40
75822;BMP180;64454;51.984;9.838;2023-07-22T13:13:36;99956.00;;;21.10
75822;BMP180;64454;51.984;9.838;2023-07-22T13:16:03;99941.00;;;21.20
75822;BMP180;64454;51.984;9.838;2023-07-22T13:18:30;99946.00;;;21.20
75822;BMP180;64454;51.984;9.838;2023-07-22T13:20:57;99937.00;;;21.20
75822;BMP180;64454;51.984;9.838;2023-07-22T13:23:24;99929.00;;;20.90
75822;BMP180;64454;51.984;9.838;2023-07-22T13:25:51;99934.00;;;20.90
75822;BMP180;64454;51.984;9.838;2023-07-22T13:28:19;99924.00;;;21.30
75822;BMP180;64454;51.984;9.838;2023-07-22T13:30:46;99920.00;;;21.20
75822;BMP180;64454;51.984;9.838;2023-07-22T13:33:13;99913.00;;;21.90
75822;BMP180;64454;51.984;9.838;2023-07-22T13:35:40;99917.00;;;21.90
75822;BMP180;64454;51.984;9.838;2023-07-22T13:38:06;99908.00;;;22.80
75822;BMP180;64454;51.984;9.838;2023-07-22T13:40:33;99908.00;;;22.50
75822;BMP180;64454;51.984;9.838;2023-07-22T13:43:00;99911.00;;;23.10
75822;BMP180;64454;51.984;9.838;2023-07-22T13:45:29;99910.00;;;23.10
75822;BMP180;64454;51.984;9.838;2023-07-22T13:47:56;99909.00;;;24.10
75822;BMP180;64454;51.984;9.838;2023-07-22T13:50:23;99901.00;;;23.60
75822;BMP180;64454;51.984;9.838;2023-07-22T13:52:50;99909.00;;;23.30
75822;BMP180;64454;51.984;9.838;2023-07-22T13:55:17;99902.00;;;23.40
75822;BMP180;64454;51.984;9.838;2023-07-22T13:57:44;99894.00;;;23.70
75822;BMP180;64454;51.984;9.838;2023-07-22T14:00:11;99898.00;;;23.40
75822;BMP180;64454;51.984;9.838;2023-07-22T14:02:41;99895.00;;;23.10
75822;BMP180;64454;51.984;9.838;2023-07-22T14:05:08;99888.00;;;23.20
75822;BMP180;64454;51.984;9.838;2023-07-22T14:07:36;99885.00;;;23.60
75822;BMP180;64454;51.984;9.838;2023-07-22T14:10:04;99898.00;;;23.20